sensor_id;sensor_type;location;lat;lon;timestamp;temperature;humidity
6421;DHT22;3243;50.958;7.012;2023-06-10T00:02:02;18.60;99.90
6421;DHT22;3243;50.958;7.012;2023-06-10T00:04:30;18.60;99.90
6421;DHT22;3243;50.958;7.012;2023-06-10T00:06:57;18.60;1.00
6421;DHT22;3243;50.958;7.012;2023-06-10T00:09:24;18.50;26.20
6421;DHT22;3243;50.958;7.012;2023-06-10T00:11:50;18.50;99.90
6421;DHT22;3243;50.958;7.012;2023-06-10T00:14:19;18.50;1.00
6421;DHT22;3243;50.958;7.012;2023-06-10T00:16:46;18.40;89.40
6421;DHT22;3243;50.958;7.012;2023-06-10T00:19:13;18.40;1.00
6421;DHT22;3243;50.958;7.012;2023-06-10T00:21:40;18.40;1.00
6421;DHT22;3243;50.958;7.012;2023-06-10T00:24:08;18.40;1.00
6421;DHT22;3243;50.958;7.012;2023-06-10T00:26:41;18.30;97.40
6421;DHT22;3243;50.958;7.012;2023-06-10T00:29:08;18.30;99.90
6421;DHT22;3243;50.958;7.012;2023-06-10T00:31:37;18.30;99.90
6421;DHT22;3243;50.958;7.012;2023-06-10T00:34:04;18.20;1.00
6421;DHT22;3243;50.958;7.012;2023-06-10T00:36:31;18.20;99.90
6421;DHT22;3243;50.958;7.012;2023-06-10T00:38:57;18.10;1.00
6421;DHT22;3243;50.958;7.012;2023-06-10T00:41:24;18.10;99.90
6421;DHT22;3243;50.958;7.012;2023-06-10T00:43:53;18.10;1.00
6421;DHT22;3243;50.958;7.012;2023-06-10T00:46:20;17.90;1.00
6421;DHT22;3243;50.958;7.012;2023-06-10T00:48:48;17.90;1.00
6421;DHT22;3243;50.958;7.012;2023-06-10T00:51:16;17.90;23.20
6421;DHT22;3243;50.958;7.012;2023-06-10T00:53:43;17.90;62.40
6421;DHT22;3243;50.958;7.012;2023-06-10T00:56:11;17.80;22.70
6421;DHT22;3243;50.958;7.012;2023-06-10T00:58:38;17.80;1.00
6421;DHT22;3243;50.958;7.012;2023-06-10T01:01:05;17.80;1.00
6421;DHT22;3243;50.958;7.012;2023-06-10T01:03:32;17.70;1.00
6421;DHT22;3243;50.958;7.012;2023-06-10T01:12:01;17.60;1.00
6421;DHT22;3243;50.958;7.012;2023-06-10T01:14:35;17.60;1.00
6421;DHT22;3243;50.958;7.012;2023-06-10T01:17:02;17.60;99.90
6421;DHT22;3243;50.958;7.012;2023-06-10T01:19:30;17.60;1.00
6421;DHT22;3243;50.958;7.012;2023-06-10T01:21:57;17.60;1.00
6421;DHT22;3243;50.958;7.012;2023-06-10T01:24:27;17.60;1.00
6421;DHT22;3243;50.958;7.012;2023-06-10T01:27:00;17.50;1.00
6421;DHT22;3243;50.958;7.012;2023-06-10T01:29:33;17.50;99.90
6421;DHT22;3243;50.958;7.012;2023-06-10T01:32:12;17.40;1.00
6421;DHT22;3243;50.958;7.012;2023-06-10T01:34:42;17.60;1.00
6421;DHT22;3243;50.958;7.012;2023-06-10T01:37:13;17.50;1.00
6421;DHT22;3243;50.958;7.012;2023-06-10T01:39:42;17.60;99.90
6421;DHT22;3243;50.958;7.012;2023-06-10T01:42:10;17.60;99.90
6421;DHT22;3243;50.958;7.012;2023-06-10T01:44:39;17.60;99.90
6421;DHT22;3243;50.958;7.012;2023-06-10T01:47:06;17.60;1.00
6421;DHT22;3243;50.958;7.012;2023-06-10T01:49:33;17.60;1.00
6421;DHT22;3243;50.958;7.012;2023-06-10T01:51:59;17.70;99.90
6421;DHT22;3243;50.958;7.012;2023-06-10T01:54:26;17.70;1.00
6421;DHT22;3243;50.958;7.012;2023-06-10T01:56:53;17.70;99.90
6421;DHT22;3243;50.958;7.012;2023-06-10T01:59:20;17.70;99.90
6421;DHT22;3243;50.958;7.012;2023-06-10T02:01:47;17.60;1.00
6421;DHT22;3243;50.958;7.012;2023-06-10T02:04:13;17.70;99.90
6421;DHT22;3243;50.958;7.012;2023-06-10T02:06:43;17.60;99.90
6421;DHT22;3243;50.958;7.012;2023-06-10T02:09:10;17.60;41.40
6421;DHT22;3243;50.958;7.012;2023-06-10T02:11:36;17.60;99.90
6421;DHT22;3243;50.958;7.012;2023-06-10T02:14:03;17.60;99.90
6421;DHT22;3243;50.958;7.012;2023-06-10T02:16:33;17.60;1.00
6421;DHT22;3243;50.958;7.012;2023-06-10T02:19:00;17.60;99.90
6421;DHT22;3243;50.958;7.012;2023-06-10T02:21:27;17.60;1.00
6421;DHT22;3243;50.958;7.012;2023-06-10T02:23:54;17.60;99.90
6421;DHT22;3243;50.958;7.012;2023-06-10T02:26:21;17.50;99.90
6421;DHT22;3243;50.958;7.012;2023-06-10T02:28:47;17.50;99.90
6421;DHT22;3243;50.958;7.012;2023-06-10T02:31:14;17.50;1.00
6421;DHT22;3243;50.958;7.012;2023-06-10T02:33:44;17.50;99.90
6421;DHT22;3243;50.958;7.012;2023-06-10T02:36:11;17.50;1.00
6421;DHT22;3243;50.958;7.012;2023-06-10T02:38:40;17.50;99.90
6421;DHT22;3243;50.958;7.012;2023-06-10T02:41:07;17.50;46.40
6421;DHT22;3243;50.958;7.012;2023-06-10T02:43:33;17.30;1.00
6421;DHT22;3243;50.958;7.012;2023-06-10T02:46:00;17.30;96.60
6421;DHT22;3243;50.958;7.012;2023-06-10T02:48:27;17.30;99.90
6421;DHT22;3243;50.958;7.012;2023-06-10T02:50:54;17.30;99.90
6421;DHT22;3243;50.958;7.012;2023-06-10T02:53:22;17.30;99.90
6421;DHT22;3243;50.958;7.012;2023-06-10T02:55:49;17.30;99.90
6421;DHT22;3243;50.958;7.012;2023-06-10T02:58:16;17.30;1.00
6421;DHT22;3243;50.958;7.012;2023-06-10T03:00:43;17.30;99.90
6421;DHT22;3243;50.958;7.012;2023-06-10T03:03:10;17.20;99.90
6421;DHT22;3243;50.958;7.012;2023-06-10T03:05:37;17.10;99.90
6421;DHT22;3243;50.958;7.012;2023-06-10T03:08:04;17.10;99.90
6421;DHT22;3243;50.958;7.012;2023-06-10T03:10:31;17.00;99.90
6421;DHT22;3243;50.958;7.012;2023-06-10T03:12:59;17.00;99.90
6421;DHT22;3243;50.958;7.012;2023-06-10T03:15:26;16.90;99.90
6421;DHT22;3243;50.958;7.012;2023-06-10T03:17:55;17.00;99.90
6421;DHT22;3243;50.958;7.012;2023-06-10T03:20:22;17.00;99.90
6421;DHT22;3243;50.958;7.012;2023-06-10T03:22:48;16.90;1.00
6421;DHT22;3243;50.958;7.012;2023-06-10T03:25:15;16.90;36.90
6421;DHT22;3243;50.958;7.012;2023-06-10T03:27:42;16.90;1.00
6421;DHT22;3243;50.958;7.012;2023-06-10T03:30:10;17.00;1.00
6421;DHT22;3243;50.958;7.012;2023-06-10T03:32:37;16.90;99.90
6421;DHT22;3243;50.958;7.012;2023-06-10T03:35:04;17.00;99.90
6421;DHT22;3243;50.958;7.012;2023-06-10T03:37:31;16.90;99.90
6421;DHT22;3243;50.958;7.012;2023-06-10T03:39:58;17.00;1.00
6421;DHT22;3243;50.958;7.012;2023-06-10T03:42:25;17.00;9.40
6421;DHT22;3243;50.958;7.012;2023-06-10T03:44:51;17.10;1.00
6421;DHT22;3243;50.958;7.012;2023-06-10T03:47:18;17.00;1.00
6421;DHT22;3243;50.958;7.012;2023-06-10T03:49:45;17.00;25.30
6421;DHT22;3243;50.958;7.012;2023-06-10T03:52:12;17.00;1.00
6421;DHT22;3243;50.958;7.012;2023-06-10T03:54:38;17.10;24.70
6421;DHT22;3243;50.958;7.012;2023-06-10T03:57:05;17.10;1.00
6421;DHT22;3243;50.958;7.012;2023-06-10T03:59:32;17.10;1.00
6421;DHT22;3243;50.958;7.012;2023-06-10T04:01:59;17.10;1.00
6421;DHT22;3243;50.958;7.012;2023-06-10T04:04:27;17.20;1.00
6421;DHT22;3243;50.958;7.012;2023-06-10T04:06:54;17.10;1.00
6421;DHT22;3243;50.958;7.012;2023-06-10T04:09:20;17.20;1.00
6421;DHT22;3243;50.958;7.012;2023-06-10T04:11:47;17.10;1.00
6421;DHT22;3243;50.958;7.012;2023-06-10T04:14:14;17.10;94.90
6421;DHT22;3243;50.958;7.012;2023-06-10T04:16:41;17.20;99.90
6421;DHT22;3243;50.958;7.012;2023-06-10T04:19:09;17.20;1.00
6421;DHT22;3243;50.958;7.012;2023-06-10T04:21:36;17.30;1.00
6421;DHT22;3243;50.958;7.012;2023-06-10T04:24:03;17.30;75.50
6421;DHT22;3243;50.958;7.012;2023-06-10T04:26:30;17.30;95.90
6421;DHT22;3243;50.958;7.012;2023-06-10T04:28:57;17.20;99.90
6421;DHT22;3243;50.958;7.012;2023-06-10T04:31:23;17.30;1.00
6421;DHT22;3243;50.958;7.012;2023-06-10T04:33:50;17.40;99.90
6421;DHT22;3243;50.958;7.012;2023-06-10T04:36:17;17.40;99.90
6421;DHT22;3243;50.958;7.012;2023-06-10T04:38:44;17.50;99.90
6421;DHT22;3243;50.958;7.012;2023-06-10T04:41:10;17.50;99.90
6421;DHT22;3243;50.958;7.012;2023-06-10T04:43:40;17.60;1.00
6421;DHT22;3243;50.958;7.012;2023-06-10T04:46:07;17.70;1.00
6421;DHT22;3243;50.958;7.012;2023-06-10T04:48:34;17.80;1.00
6421;DHT22;3243;50.958;7.012;2023-06-10T04:51:02;17.90;99.90
6421;DHT22;3243;50.958;7.012;2023-06-10T04:53:29;18.10;1.00
6421;DHT22;3243;50.958;7.012;2023-06-10T04:55:56;18.10;1.00
6421;DHT22;3243;50.958;7.012;2023-06-10T04:58:24;18.20;99.90
6421;DHT22;3243;50.958;7.012;2023-06-10T05:00:51;18.30;99.90
6421;DHT22;3243;50.958;7.012;2023-06-10T05:03:17;18.50;33.60
6421;DHT22;3243;50.958;7.012;2023-06-10T05:05:44;18.50;1.00
6421;DHT22;3243;50.958;7.012;2023-06-10T05:08:11;18.70;1.00
6421;DHT22;3243;50.958;7.012;2023-06-10T05:10:38;18.80;99.90
6421;DHT22;3243;50.958;7.012;2023-06-10T05:13:05;19.00;66.60
6421;DHT22;3243;50.958;7.012;2023-06-10T05:15:32;19.30;1.00
6421;DHT22;3243;50.958;7.012;2023-06-10T05:17:59;19.70;1.00
6421;DHT22;3243;50.958;7.012;2023-06-10T05:20:26;20.00;99.90
6421;DHT22;3243;50.958;7.012;2023-06-10T05:22:55;20.10;99.90
6421;DHT22;3243;50.958;7.012;2023-06-10T05:25:22;20.60;99.90
6421;DHT22;3243;50.958;7.012;2023-06-10T05:27:48;21.50;99.90
6421;DHT22;3243;50.958;7.012;2023-06-10T05:30:15;22.60;58.80
6421;DHT22;3243;50.958;7.012;2023-06-10T05:32:45;23.90;15.20
6421;DHT22;3243;50.958;7.012;2023-06-10T05:35:13;25.10;51.40
6421;DHT22;3243;50.958;7.012;2023-06-10T05:37:39;26.20;1.00
6421;DHT22;3243;50.958;7.012;2023-06-10T05:40:07;26.80;1.00
6421;DHT22;3243;50.958;7.012;2023-06-10T05:42:34;27.00;40.00
6421;DHT22;3243;50.958;7.012;2023-06-10T05:45:01;27.50;99.90
6421;DHT22;3243;50.958;7.012;2023-06-10T05:47:28;27.80;99.90
6421;DHT22;3243;50.958;7.012;2023-06-10T05:49:56;27.80;99.90
6421;DHT22;3243;50.958;7.012;2023-06-10T05:52:22;28.30;99.90
6421;DHT22;3243;50.958;7.012;2023-06-10T05:54:50;28.30;99.90
6421;DHT22;3243;50.958;7.012;2023-06-10T05:57:17;29.00;99.90
6421;DHT22;3243;50.958;7.012;2023-06-10T05:59:43;29.10;99.90
6421;DHT22;3243;50.958;7.012;2023-06-10T06:02:10;29.20;99.90
6421;DHT22;3243;50.958;7.012;2023-06-10T06:04:37;29.30;99.90
6421;DHT22;3243;50.958;7.012;2023-06-10T06:07:04;29.30;99.90
6421;DHT22;3243;50.958;7.012;2023-06-10T06:09:32;29.30;99.90
6421;DHT22;3243;50.958;7.012;2023-06-10T06:11:59;29.60;99.90
6421;DHT22;3243;50.958;7.012;2023-06-10T06:14:25;29.40;99.90
6421;DHT22;3243;50.958;7.012;2023-06-10T06:16:52;28.90;99.90
6421;DHT22;3243;50.958;7.012;2023-06-10T06:19:19;29.20;99.90
6421;DHT22;3243;50.958;7.012;2023-06-10T06:21:46;29.30;99.90
6421;DHT22;3243;50.958;7.012;2023-06-10T06:24:13;29.80;99.90
6421;DHT22;3243;50.958;7.012;2023-06-10T06:26:40;30.00;1.00
6421;DHT22;3243;50.958;7.012;2023-06-10T06:29:07;29.80;1.00
6421;DHT22;3243;50.958;7.012;2023-06-10T06:31:34;30.00;99.90
6421;DHT22;3243;50.958;7.012;2023-06-10T06:34:01;30.20;1.00
6421;DHT22;3243;50.958;7.012;2023-06-10T06:36:28;30.00;1.00
6421;DHT22;3243;50.958;7.012;2023-06-10T06:38:55;30.10;99.90
6421;DHT22;3243;50.958;7.012;2023-06-10T06:41:21;30.10;1.00
6421;DHT22;3243;50.958;7.012;2023-06-10T06:43:48;30.00;1.00
6421;DHT22;3243;50.958;7.012;2023-06-10T06:46:15;29.90;1.00
6421;DHT22;3243;50.958;7.012;2023-06-10T06:48:43;30.00;1.00
6421;DHT22;3243;50.958;7.012;2023-06-10T06:51:10;29.50;1.00
6421;DHT22;3243;50.958;7.012;2023-06-10T06:53:37;30.10;82.10
6421;DHT22;3243;50.958;7.012;2023-06-10T06:56:11;30.20;99.90
6421;DHT22;3243;50.958;7.012;2023-06-10T06:58:38;30.20;99.90
6421;DHT22;3243;50.958;7.012;2023-06-10T07:01:04;30.00;99.90
6421;DHT22;3243;50.958;7.012;2023-06-10T07:03:31;30.10;20.50
6421;DHT22;3243;50.958;7.012;2023-06-10T07:05:58;29.80;1.00
6421;DHT22;3243;50.958;7.012;2023-06-10T07:08:25;29.10;10.50
6421;DHT22;3243;50.958;7.012;2023-06-10T07:10:52;28.20;99.90
6421;DHT22;3243;50.958;7.012;2023-06-10T07:13:18;27.70;1.00
6421;DHT22;3243;50.958;7.012;2023-06-10T07:15:45;27.30;1.00
6421;DHT22;3243;50.958;7.012;2023-06-10T07:18:12;27.10;1.00
6421;DHT22;3243;50.958;7.012;2023-06-10T07:20:39;26.60;1.00
6421;DHT22;3243;50.958;7.012;2023-06-10T07:23:05;26.50;99.90
6421;DHT22;3243;50.958;7.012;2023-06-10T07:25:32;26.40;99.90
6421;DHT22;3243;50.958;7.012;2023-06-10T07:27:59;26.50;99.90
6421;DHT22;3243;50.958;7.012;2023-06-10T07:30:26;26.40;99.90
6421;DHT22;3243;50.958;7.012;2023-06-10T07:32:52;26.20;99.90
6421;DHT22;3243;50.958;7.012;2023-06-10T07:35:20;26.10;99.90
6421;DHT22;3243;50.958;7.012;2023-06-10T07:37:46;25.90;1.00
6421;DHT22;3243;50.958;7.012;2023-06-10T07:40:13;26.10;99.90
6421;DHT22;3243;50.958;7.012;2023-06-10T07:42:40;26.00;1.00
6421;DHT22;3243;50.958;7.012;2023-06-10T07:45:07;25.90;1.00
6421;DHT22;3243;50.958;7.012;2023-06-10T07:47:34;25.80;1.00
6421;DHT22;3243;50.958;7.012;2023-06-10T07:50:01;25.20;1.00
6421;DHT22;3243;50.958;7.012;2023-06-10T07:52:28;25.40;1.00
6421;DHT22;3243;50.958;7.012;2023-06-10T07:54:55;25.70;99.90
6421;DHT22;3243;50.958;7.012;2023-06-10T07:57:22;25.80;1.00
6421;DHT22;3243;50.958;7.012;2023-06-10T07:59:48;25.90;99.90
6421;DHT22;3243;50.958;7.012;2023-06-10T08:02:15;25.90;1.00
6421;DHT22;3243;50.958;7.012;2023-06-10T08:04:42;25.50;1.00
6421;DHT22;3243;50.958;7.012;2023-06-10T08:07:09;25.70;99.90
6421;DHT22;3243;50.958;7.012;2023-06-10T08:09:36;25.80;99.90
6421;DHT22;3243;50.958;7.012;2023-06-10T08:12:03;26.20;1.00
6421;DHT22;3243;50.958;7.012;2023-06-10T08:14:30;26.00;1.00
6421;DHT22;3243;50.958;7.012;2023-06-10T08:16:56;26.00;99.90
6421;DHT22;3243;50.958;7.012;2023-06-10T08:19:23;26.10;99.90
6421;DHT22;3243;50.958;7.012;2023-06-10T08:21:50;26.30;99.90
6421;DHT22;3243;50.958;7.012;2023-06-10T08:24:17;26.30;99.90
6421;DHT22;3243;50.958;7.012;2023-06-10T08:26:45;26.20;99.90
6421;DHT22;3243;50.958;7.012;2023-06-10T08:29:12;26.40;99.90
6421;DHT22;3243;50.958;7.012;2023-06-10T08:31:43;26.50;99.90
6421;DHT22;3243;50.958;7.012;2023-06-10T08:34:10;26.60;99.90
6421;DHT22;3243;50.958;7.012;2023-06-10T08:36:38;26.60;1.00
6421;DHT22;3243;50.958;7.012;2023-06-10T08:39:05;26.50;1.00
6421;DHT22;3243;50.958;7.012;2023-06-10T08:41:35;26.50;1.00
6421;DHT22;3243;50.958;7.012;2023-06-10T08:44:17;26.40;99.90
6421;DHT22;3243;50.958;7.012;2023-06-10T08:46:47;26.30;1.00
6421;DHT22;3243;50.958;7.012;2023-06-10T08:49:18;26.30;1.00
6421;DHT22;3243;50.958;7.012;2023-06-10T08:51:50;26.70;1.00
6421;DHT22;3243;50.958;7.012;2023-06-10T08:54:21;26.80;1.00
6421;DHT22;3243;50.958;7.012;2023-06-10T08:56:51;27.10;1.00
6421;DHT22;3243;50.958;7.012;2023-06-10T08:59:20;27.30;1.00
6421;DHT22;3243;50.958;7.012;2023-06-10T09:01:47;27.20;47.30
6421;DHT22;3243;50.958;7.012;2023-06-10T09:04:15;27.40;1.00
6421;DHT22;3243;50.958;7.012;2023-06-10T09:06:43;27.50;99.90
6421;DHT22;3243;50.958;7.012;2023-06-10T09:09:12;27.60;99.90
6421;DHT22;3243;50.958;7.012;2023-06-10T09:11:42;27.70;30.30
6421;DHT22;3243;50.958;7.012;2023-06-10T09:14:09;27.80;99.90
6421;DHT22;3243;50.958;7.012;2023-06-10T09:16:37;27.90;1.00
6421;DHT22;3243;50.958;7.012;2023-06-10T09:19:05;28.00;26.10
6421;DHT22;3243;50.958;7.012;2023-06-10T09:21:34;28.00;99.90
6421;DHT22;3243;50.958;7.012;2023-06-10T09:24:05;29.50;39.60
6421;DHT22;3243;50.958;7.012;2023-06-10T09:26:32;28.00;99.90
6421;DHT22;3243;50.958;7.012;2023-06-10T09:29:08;28.10;99.90
6421;DHT22;3243;50.958;7.012;2023-06-10T09:31:36;28.20;7.20
6421;DHT22;3243;50.958;7.012;2023-06-10T09:34:08;28.10;99.90
6421;DHT22;3243;50.958;7.012;2023-06-10T09:36:36;28.10;1.00
6421;DHT22;3243;50.958;7.012;2023-06-10T09:39:03;27.90;1.00
6421;DHT22;3243;50.958;7.012;2023-06-10T09:41:34;28.00;99.90
6421;DHT22;3243;50.958;7.012;2023-06-10T09:44:02;28.10;99.90
6421;DHT22;3243;50.958;7.012;2023-06-10T09:46:35;27.90;1.00
6421;DHT22;3243;50.958;7.012;2023-06-10T09:49:02;27.80;1.00
6421;DHT22;3243;50.958;7.012;2023-06-10T09:51:29;27.70;99.90
6421;DHT22;3243;50.958;7.012;2023-06-10T09:53:56;27.80;1.00
6421;DHT22;3243;50.958;7.012;2023-06-10T09:56:33;28.20;1.00
6421;DHT22;3243;50.958;7.012;2023-06-10T09:59:01;28.30;99.90
6421;DHT22;3243;50.958;7.012;2023-06-10T10:01:29;28.40;51.90
6421;DHT22;3243;50.958;7.012;2023-06-10T10:03:57;28.40;1.00
6421;DHT22;3243;50.958;7.012;2023-06-10T10:06:24;28.60;99.90
6421;DHT22;3243;50.958;7.012;2023-06-10T10:08:52;28.80;99.90
6421;DHT22;3243;50.958;7.012;2023-06-10T10:11:21;29.00;99.90
6421;DHT22;3243;50.958;7.012;2023-06-10T10:13:53;29.20;99.90
6421;DHT22;3243;50.958;7.012;2023-06-10T10:16:29;29.40;1.00
6421;DHT22;3243;50.958;7.012;2023-06-10T10:19:11;29.50;1.00
6421;DHT22;3243;50.958;7.012;2023-06-10T10:21:44;29.40;99.90
6421;DHT22;3243;50.958;7.012;2023-06-10T10:24:21;29.50;99.90
6421;DHT22;3243;50.958;7.012;2023-06-10T10:26:50;29.60;99.90
6421;DHT22;3243;50.958;7.012;2023-06-10T10:32:18;29.60;1.00
6421;DHT22;3243;50.958;7.012;2023-06-10T10:35:16;30.00;99.90
6421;DHT22;3243;50.958;7.012;2023-06-10T10:37:44;30.30;99.90
6421;DHT22;3243;50.958;7.012;2023-06-10T10:40:12;30.60;1.00
6421;DHT22;3243;50.958;7.012;2023-06-10T10:42:39;30.60;1.00
6421;DHT22;3243;50.958;7.012;2023-06-10T10:45:07;30.40;1.00
6421;DHT22;3243;50.958;7.012;2023-06-10T10:47:36;30.30;1.00
6421;DHT22;3243;50.958;7.012;2023-06-10T10:50:14;30.10;1.00
6421;DHT22;3243;50.958;7.012;2023-06-10T10:52:56;30.40;99.90
6421;DHT22;3243;50.958;7.012;2023-06-10T10:55:24;31.00;99.90
6421;DHT22;3243;50.958;7.012;2023-06-10T10:58:11;31.10;99.90
6421;DHT22;3243;50.958;7.012;2023-06-10T11:00:45;31.30;99.90
6421;DHT22;3243;50.958;7.012;2023-06-10T11:03:14;31.70;99.90
6421;DHT22;3243;50.958;7.012;2023-06-10T11:05:48;32.10;1.00
6421;DHT22;3243;50.958;7.012;2023-06-10T11:11:25;32.40;1.00
6421;DHT22;3243;50.958;7.012;2023-06-10T11:16:41;32.10;99.90
6421;DHT22;3243;50.958;7.012;2023-06-10T11:19:09;32.10;1.00
6421;DHT22;3243;50.958;7.012;2023-06-10T11:21:57;32.10;89.40
6421;DHT22;3243;50.958;7.012;2023-06-10T11:29:21;30.50;99.90
6421;DHT22;3243;50.958;7.012;2023-06-10T11:31:51;30.10;99.90
6421;DHT22;3243;50.958;7.012;2023-06-10T11:34:23;29.80;99.90
6421;DHT22;3243;50.958;7.012;2023-06-10T11:36:51;29.70;80.00
6421;DHT22;3243;50.958;7.012;2023-06-10T11:39:20;29.80;1.00
6421;DHT22;3243;50.958;7.012;2023-06-10T11:41:47;29.70;99.90
6421;DHT22;3243;50.958;7.012;2023-06-10T11:44:15;29.60;99.90
6421;DHT22;3243;50.958;7.012;2023-06-10T11:46:47;29.60;99.90
6421;DHT22;3243;50.958;7.012;2023-06-10T11:49:15;29.50;99.90
6421;DHT22;3243;50.958;7.012;2023-06-10T11:56:44;29.40;99.90
6421;DHT22;3243;50.958;7.012;2023-06-10T11:59:11;29.40;1.00
6421;DHT22;3243;50.958;7.012;2023-06-10T12:01:42;29.40;99.90
6421;DHT22;3243;50.958;7.012;2023-06-10T12:04:12;29.30;1.00
6421;DHT22;3243;50.958;7.012;2023-06-10T12:09:24;29.30;23.70
6421;DHT22;3243;50.958;7.012;2023-06-10T12:12:01;29.10;1.00
6421;DHT22;3243;50.958;7.012;2023-06-10T12:14:57;29.30;99.90
6421;DHT22;3243;50.958;7.012;2023-06-10T12:20:03;29.70;99.90
6421;DHT22;3243;50.958;7.012;2023-06-10T12:22:41;29.90;1.00
6421;DHT22;3243;50.958;7.012;2023-06-10T12:25:09;30.00;1.00
6421;DHT22;3243;50.958;7.012;2023-06-10T12:30:05;29.90;1.00
6421;DHT22;3243;50.958;7.012;2023-06-10T12:32:46;29.90;99.90
6421;DHT22;3243;50.958;7.012;2023-06-10T12:35:21;30.10;1.00
6421;DHT22;3243;50.958;7.012;2023-06-10T12:37:59;30.20;1.00
6421;DHT22;3243;50.958;7.012;2023-06-10T12:40:44;30.50;92.60
6421;DHT22;3243;50.958;7.012;2023-06-10T12:43:11;30.80;99.90
6421;DHT22;3243;50.958;7.012;2023-06-10T12:45:39;31.00;99.90
6421;DHT22;3243;50.958;7.012;2023-06-10T12:48:20;31.20;99.90
6421;DHT22;3243;50.958;7.012;2023-06-10T12:50:55;31.40;1.00
6421;DHT22;3243;50.958;7.012;2023-06-10T12:53:23;31.60;99.90
6421;DHT22;3243;50.958;7.012;2023-06-10T12:55:50;31.60;1.00
6421;DHT22;3243;50.958;7.012;2023-06-10T12:58:19;31.50;1.00
6421;DHT22;3243;50.958;7.012;2023-06-10T13:00:46;31.50;99.90
6421;DHT22;3243;50.958;7.012;2023-06-10T13:03:15;31.60;99.90
6421;DHT22;3243;50.958;7.012;2023-06-10T13:08:10;31.50;1.00
6421;DHT22;3243;50.958;7.012;2023-06-10T13:10:37;31.40;99.90
6421;DHT22;3243;50.958;7.012;2023-06-10T13:13:04;31.00;53.50
6421;DHT22;3243;50.958;7.012;2023-06-10T13:15:34;30.60;99.90
6421;DHT22;3243;50.958;7.012;2023-06-10T13:23:06;30.10;99.90
6421;DHT22;3243;50.958;7.012;2023-06-10T13:30:31;30.10;1.00
6421;DHT22;3243;50.958;7.012;2023-06-10T13:35:25;30.20;1.00
6421;DHT22;3243;50.958;7.012;2023-06-10T13:40:19;29.80;1.00
6421;DHT22;3243;50.958;7.012;2023-06-10T13:45:17;29.60;99.90
6421;DHT22;3243;50.958;7.012;2023-06-10T13:47:44;29.90;99.90
6421;DHT22;3243;50.958;7.012;2023-06-10T13:52:39;30.50;99.90
6421;DHT22;3243;50.958;7.012;2023-06-10T13:55:07;30.60;99.90
6421;DHT22;3243;50.958;7.012;2023-06-10T14:00:02;31.10;1.00
6421;DHT22;3243;50.958;7.012;2023-06-10T14:02:29;31.20;1.00
6421;DHT22;3243;50.958;7.012;2023-06-10T14:07:23;31.50;1.00
6421;DHT22;3243;50.958;7.012;2023-06-10T14:19:41;32.30;1.00
6421;DHT22;3243;50.958;7.012;2023-06-10T14:24:35;32.60;1.00
6421;DHT22;3243;50.958;7.012;2023-06-10T14:27:05;32.50;99.90
6421;DHT22;3243;50.958;7.012;2023-06-10T14:29:33;32.60;1.00
6421;DHT22;3243;50.958;7.012;2023-06-10T14:34:27;32.50;99.90
6421;DHT22;3243;50.958;7.012;2023-06-10T14:36:56;32.50;99.90
6421;DHT22;3243;50.958;7.012;2023-06-10T14:39:23;32.60;1.00
6421;DHT22;3243;50.958;7.012;2023-06-10T14:41:50;32.10;99.90
6421;DHT22;3243;50.958;7.012;2023-06-10T14:46:44;31.30;1.00
6421;DHT22;3243;50.958;7.012;2023-06-10T14:56:33;30.40;1.00
6421;DHT22;3243;50.958;7.012;2023-06-10T15:01:27;30.30;1.00
6421;DHT22;3243;50.958;7.012;2023-06-10T15:06:21;30.60;1.00
6421;DHT22;3243;50.958;7.012;2023-06-10T15:13:43;30.20;1.00
6421;DHT22;3243;50.958;7.012;2023-06-10T15:18:38;30.40;99.90
6421;DHT22;3243;50.958;7.012;2023-06-10T15:23:32;30.60;99.90
6421;DHT22;3243;50.958;7.012;2023-06-10T15:28:26;30.70;1.00
6421;DHT22;3243;50.958;7.012;2023-06-10T15:33:21;30.50;1.00
6421;DHT22;3243;50.958;7.012;2023-06-10T15:35:48;30.30;1.00
6421;DHT22;3243;50.958;7.012;2023-06-10T15:45:37;29.60;99.90
6421;DHT22;3243;50.958;7.012;2023-06-10T15:52:58;30.10;99.90
6421;DHT22;3243;50.958;7.012;2023-06-10T15:55:25;30.10;1.00
6421;DHT22;3243;50.958;7.012;2023-06-10T15:57:53;30.20;1.00
6421;DHT22;3243;50.958;7.012;2023-06-10T16:05:14;30.30;99.90
6421;DHT22;3243;50.958;7.012;2023-06-10T16:07:41;30.40;1.00
6421;DHT22;3243;50.958;7.012;2023-06-10T16:10:08;30.50;1.00
6421;DHT22;3243;50.958;7.012;2023-06-10T16:15:02;30.50;1.00
6421;DHT22;3243;50.958;7.012;2023-06-10T16:17:29;30.50;99.90
6421;DHT22;3243;50.958;7.012;2023-06-10T16:22:24;30.50;1.00
6421;DHT22;3243;50.958;7.012;2023-06-10T16:27:18;30.20;99.90
6421;DHT22;3243;50.958;7.012;2023-06-10T16:29:45;30.20;99.90
6421;DHT22;3243;50.958;7.012;2023-06-10T16:34:40;30.20;1.00
6421;DHT22;3243;50.958;7.012;2023-06-10T16:37:06;30.20;99.90
6421;DHT22;3243;50.958;7.012;2023-06-10T16:39:33;30.10;99.90
6421;DHT22;3243;50.958;7.012;2023-06-10T16:44:27;30.10;99.90
6421;DHT22;3243;50.958;7.012;2023-06-10T16:49:21;30.00;99.90
6421;DHT22;3243;50.958;7.012;2023-06-10T17:01:37;30.00;1.00
6421;DHT22;3243;50.958;7.012;2023-06-10T17:04:04;30.00;99.90
6421;DHT22;3243;50.958;7.012;2023-06-10T17:08:58;30.00;1.00
6421;DHT22;3243;50.958;7.012;2023-06-10T17:11:25;29.90;1.00
6421;DHT22;3243;50.958;7.012;2023-06-10T17:16:19;29.60;99.90
6421;DHT22;3243;50.958;7.012;2023-06-10T17:18:46;29.70;9.40
6421;DHT22;3243;50.958;7.012;2023-06-10T17:26:07;29.50;1.00
6421;DHT22;3243;50.958;7.012;2023-06-10T17:31:01;29.50;99.90
6421;DHT22;3243;50.958;7.012;2023-06-10T17:33:28;29.40;99.90
6421;DHT22;3243;50.958;7.012;2023-06-10T17:35:54;29.40;1.00
6421;DHT22;3243;50.958;7.012;2023-06-10T17:38:21;29.40;1.00
6421;DHT22;3243;50.958;7.012;2023-06-10T17:45:43;29.40;1.00
6421;DHT22;3243;50.958;7.012;2023-06-10T17:48:10;29.30;99.90
6421;DHT22;3243;50.958;7.012;2023-06-10T17:53:04;29.10;1.00
6421;DHT22;3243;50.958;7.012;2023-06-10T17:57:58;29.00;1.00
6421;DHT22;3243;50.958;7.012;2023-06-10T18:00:25;29.10;99.90
6421;DHT22;3243;50.958;7.012;2023-06-10T18:02:52;29.00;1.00
6421;DHT22;3243;50.958;7.012;2023-06-10T18:05:20;28.90;61.80
6421;DHT22;3243;50.958;7.012;2023-06-10T18:10:14;28.80;99.90
6421;DHT22;3243;50.958;7.012;2023-06-10T18:12:41;28.70;99.90
6421;DHT22;3243;50.958;7.012;2023-06-10T18:17:35;28.50;99.90
6421;DHT22;3243;50.958;7.012;2023-06-10T18:20:03;28.40;99.90
6421;DHT22;3243;50.958;7.012;2023-06-10T18:22:30;28.40;99.90
6421;DHT22;3243;50.958;7.012;2023-06-10T18:24:58;28.30;99.90
6421;DHT22;3243;50.958;7.012;2023-06-10T18:27:25;28.20;99.90
6421;DHT22;3243;50.958;7.012;2023-06-10T18:29:51;28.10;99.90
6421;DHT22;3243;50.958;7.012;2023-06-10T18:34:46;28.00;60.20
6421;DHT22;3243;50.958;7.012;2023-06-10T18:39:40;27.90;93.00
6421;DHT22;3243;50.958;7.012;2023-06-10T18:42:07;27.80;97.20
6421;DHT22;3243;50.958;7.012;2023-06-10T18:44:34;27.70;1.00
6421;DHT22;3243;50.958;7.012;2023-06-10T18:54:23;27.30;1.00
6421;DHT22;3243;50.958;7.012;2023-06-10T18:59:18;27.00;1.00
6421;DHT22;3243;50.958;7.012;2023-06-10T19:01:45;27.20;99.90
6421;DHT22;3243;50.958;7.012;2023-06-10T19:04:12;27.00;1.00
6421;DHT22;3243;50.958;7.012;2023-06-10T19:09:06;26.80;99.90
6421;DHT22;3243;50.958;7.012;2023-06-10T19:11:33;26.80;99.90
6421;DHT22;3243;50.958;7.012;2023-06-10T19:14:00;26.60;1.00
6421;DHT22;3243;50.958;7.012;2023-06-10T19:18:54;26.40;1.00
6421;DHT22;3243;50.958;7.012;2023-06-10T19:21:21;26.30;99.90
6421;DHT22;3243;50.958;7.012;2023-06-10T19:23:48;26.20;99.90
6421;DHT22;3243;50.958;7.012;2023-06-10T19:28:42;26.00;99.90
6421;DHT22;3243;50.958;7.012;2023-06-10T19:33:36;25.70;1.00